Time;durP1;ratioP1;P1;durP2;ratioP2;P2;SDS_P1;SDS_P2;PMS_P1;PMS_P2;Temp;Humidity;BMP_temperature;BMP_pressure;BME280_temperature;BME280_humidity;BME280_pressure;Samples;Min_cycle;Max_cycle;Signal;HPM_P1;HPM_P2
2023/12/09 00:01:02;;;;;;;747.15;86.28;;;;;;;-144.73;100.00;54768.97;4975156;28;20065;-73
2023/12/09 00:03:27;;;;;;;710.55;81.18;;;;;;;-144.73;100.00;54740.22;4972681;28;20018;-74
2023/12/09 00:05:53;;;;;;;601.45;77.75;;;;;;;-144.73;100.00;54760.75;4970759;28;20043;-74
2023/12/09 00:08:18;;;;;;;552.25;73.03;;;;;;;-144.73;100.00;54779.22;4970718;28;20007;-74
2023/12/09 00:10:44;;;;;;;530.80;65.75;;;;;;;-144.73;100.00;54793.59;4970391;28;20039;-75
2023/12/09 00:13:10;;;;;;;599.30;72.63;;;;;;;-144.73;100.00;54785.38;4970702;28;20023;-74
2023/12/09 00:15:39;;;;;;;602.90;74.35;;;;;;;-144.73;100.00;54760.75;4962751;28;20100;-74
2023/12/09 00:18:04;;;;;;;500.65;63.88;;;;;;;-144.73;100.00;54727.91;4970202;28;20035;-76
2023/12/09 00:20:30;;;;;;;516.55;69.03;;;;;;;-144.73;100.00;54773.06;4969758;28;20490;-74
2023/12/09 00:22:55;;;;;;;640.30;74.95;;;;;;;-144.73;100.00;54748.44;4970811;28;20019;-74
2023/12/09 00:25:20;;;;;;;568.55;72.63;;;;;;;-144.73;100.00;54773.06;4969647;28;20046;-74
2023/12/09 00:27:46;;;;;;;582.60;67.63;;;;;;;-144.73;100.00;54699.16;4972529;28;20030;-74
2023/12/09 00:30:11;;;;;;;467.77;66.82;;;;;;;-144.73;100.00;54756.66;4971563;28;20113;-75
2023/12/09 00:32:37;;;;;;;547.20;69.97;;;;;;;-144.73;100.00;54756.66;4970614;28;20047;-74
2023/12/09 00:35:02;;;;;;;559.80;70.97;;;;;;;-144.73;100.00;54695.06;4969734;28;20038;-74
2023/12/09 00:37:28;;;;;;;579.47;72.75;;;;;;;-144.73;100.00;54736.13;4969766;28;20023;-75
2023/12/09 00:39:53;;;;;;;494.33;64.43;;;;;;;-144.73;100.00;54736.13;4970174;28;20039;-76
2023/12/09 00:42:18;;;;;;;526.60;66.53;;;;;;;-144.73;100.00;54752.53;4969824;28;20030;-75
2023/12/09 00:44:44;;;;;;;495.60;66.32;;;;;;;-144.73;100.00;54740.22;4969788;28;20022;-75
2023/12/09 00:47:09;;;;;;;372.52;56.13;;;;;;;-144.73;100.00;54764.84;4971388;28;20019;-74
2023/12/09 00:49:35;;;;;;;423.13;57.60;;;;;;;-144.73;100.00;54779.22;4960899;28;20023;-74
2023/12/09 00:52:00;;;;;;;452.50;59.15;;;;;;;-144.73;100.00;54775.13;4985850;28;20014;-73
2023/12/09 00:54:25;;;;;;;483.92;62.03;;;;;;;-144.73;100.00;54748.44;4969551;28;20030;-73
2023/12/09 00:56:54;;;;;;;491.48;63.70;;;;;;;-144.73;100.00;54756.66;4969135;28;20039;-75
2023/12/09 00:59:19;;;;;;;445.60;60.40;;;;;;;-144.73;100.00;54756.66;4969817;28;20379;-74
2023/12/09 01:01:45;;;;;;;526.05;66.53;;;;;;;-144.73;100.00;54785.38;4969542;28;20517;-75
2023/12/09 01:04:10;;;;;;;563.88;64.72;;;;;;;-144.73;100.00;54752.53;4970813;28;20035;-73
2023/12/09 01:06:36;;;;;;;585.65;66.55;;;;;;;-144.73;100.00;54732.00;4960336;28;20039;-74
2023/12/09 01:09:01;;;;;;;465.67;62.28;;;;;;;-144.73;100.00;54748.44;4969828;28;20023;-74
2023/12/09 01:11:27;;;;;;;470.20;61.72;;;;;;;-144.73;100.00;54752.53;4969067;28;20074;-74
2023/12/09 01:13:53;;;;;;;579.88;66.70;;;;;;;-144.73;100.00;54723.81;4968493;28;20034;-73
2023/12/09 01:16:18;;;;;;;464.75;61.50;;;;;;;-144.73;100.00;54732.00;4960873;28;20125;-75
2023/12/09 01:18:43;;;;;;;457.65;58.25;;;;;;;-144.73;100.00;54773.06;4972126;28;20088;-74
2023/12/09 01:21:11;;;;;;;453.10;60.55;;;;;;;-144.73;100.00;54727.91;4968814;28;20098;-74
2023/12/09 01:23:38;;;;;;;644.45;69.57;;;;;;;-144.73;100.00;54756.66;4970099;28;20139;-74
2023/12/09 01:26:03;;;;;;;466.25;58.83;;;;;;;-144.73;100.00;54744.31;4969508;28;20042;-75
2023/12/09 01:28:29;;;;;;;619.78;67.38;;;;;;;-144.73;100.00;54764.84;4969919;28;20030;-75
2023/12/09 01:30:57;;;;;;;560.55;68.80;;;;;;;-144.73;100.00;54736.13;5002628;28;20043;-74
2023/12/09 01:33:25;;;;;;;524.22;60.78;;;;;;;-144.73;100.00;54721.75;5002692;28;20023;-74
2023/12/09 01:35:51;;;;;;;473.30;57.15;;;;;;;-144.73;100.00;54723.81;4965660;28;20047;-74
2023/12/09 01:38:16;;;;;;;594.58;67.00;;;;;;;-144.73;100.00;54727.91;4969340;28;20170;-75
2023/12/09 01:40:42;;;;;;;592.50;66.38;;;;;;;-144.73;100.00;54756.66;4969510;28;20046;-73
2023/12/09 01:43:09;;;;;;;610.20;70.25;;;;;;;-144.73;100.00;54752.53;4970114;28;20062;-74
2023/12/09 01:45:35;;;;;;;580.22;68.15;;;;;;;-144.73;100.00;54736.13;4970974;28;20046;-74
2023/12/09 01:48:01;;;;;;;567.33;65.93;;;;;;;-144.73;100.00;54742.28;4969539;28;20027;-73
2023/12/09 01:50:28;;;;;;;601.08;67.65;;;;;;;-144.73;100.00;54793.59;4969264;28;20043;-76
2023/12/09 01:52:53;;;;;;;657.80;69.05;;;;;;;-144.73;100.00;54738.16;4970104;28;20031;-74
2023/12/09 01:55:19;;;;;;;569.95;64.22;;;;;;;-144.73;100.00;54760.75;4969160;28;20509;-74
2023/12/09 01:57:45;;;;;;;580.08;57.47;;;;;;;-144.73;100.00;54744.31;4969873;28;20023;-74
2023/12/09 02:00:12;;;;;;;630.83;64.65;;;;;;;-144.73;100.00;54727.91;4969536;28;20066;-74
2023/12/09 02:02:38;;;;;;;670.50;72.68;;;;;;;-144.73;100.00;54777.16;4970182;28;20035;-75
2023/12/09 02:05:05;;;;;;;691.33;70.68;;;;;;;-144.73;100.00;54768.97;4969810;28;20127;-74
2023/12/09 02:07:30;;;;;;;692.70;68.82;;;;;;;-144.73;100.00;54715.59;4973946;28;20035;-74
2023/12/09 02:09:55;;;;;;;620.25;68.60;;;;;;;-144.73;100.00;54729.97;4969967;28;20038;-74
2023/12/09 02:12:39;;;;;;;586.75;65.35;;;;;;;-144.73;100.00;54760.75;4970210;28;20061;-75
2023/12/09 02:15:12;;;;;;;628.30;63.22;;;;;;;-144.73;100.00;54736.13;4974143;28;20039;-74
2023/12/09 02:17:42;;;;;;;845.13;80.55;;;;;;;-144.73;100.00;54756.66;4972204;28;20035;-75
2023/12/09 02:20:11;;;;;;;673.00;69.57;;;;;;;-144.73;100.00;54805.91;4969123;28;20042;-75
2023/12/09 02:22:36;;;;;;;813.45;81.97;;;;;;;-144.73;100.00;54732.00;4969370;28;20034;-75
2023/12/09 02:25:02;;;;;;;671.78;70.78;;;;;;;-144.73;100.00;54779.22;4970973;28;20039;-75
2023/12/09 02:27:52;;;;;;;810.22;78.68;;;;;;;-144.73;100.00;54748.44;4972285;28;20034;-75
2023/12/09 02:30:25;;;;;;;621.05;66.32;;;;;;;-144.73;100.00;54732.00;4972669;28;20077;-75
2023/12/09 02:32:53;;;;;;;689.08;67.28;;;;;;;-144.73;100.00;54781.28;4973094;28;20367;-75
2023/12/09 02:35:22;;;;;;;718.15;66.50;;;;;;;-144.73;100.00;54732.00;4972154;28;20039;-75
2023/12/09 02:37:49;;;;;;;653.42;70.10;;;;;;;-144.73;100.00;54748.44;4972973;28;20486;-75
2023/12/09 02:40:17;;;;;;;809.97;77.05;;;;;;;-144.73;100.00;54752.53;4972446;28;20066;-75
2023/12/09 02:42:43;;;;;;;610.33;58.65;;;;;;;-144.73;100.00;54756.66;4972570;28;20038;-75
2023/12/09 02:45:09;;;;;;;731.72;69.80;;;;;;;-144.73;100.00;54732.00;4973511;28;20045;-75
2023/12/09 02:47:34;;;;;;;632.42;60.58;;;;;;;-144.73;100.00;54781.28;4972915;28;20042;-75
2023/12/09 02:50:00;;;;;;;763.55;75.15;;;;;;;-144.73;100.00;54744.31;4975533;28;20038;-75
2023/12/09 02:52:25;;;;;;;734.25;70.78;;;;;;;-144.73;100.00;54762.81;4980503;28;20037;-75
2023/12/09 02:54:50;;;;;;;897.65;88.82;;;;;;;-144.73;100.00;54748.44;4979869;28;20026;-75
2023/12/09 02:57:16;;;;;;;758.13;71.05;;;;;;;-144.73;100.00;54732.00;4973557;28;20035;-75
2023/12/09 02:59:41;;;;;;;758.92;70.47;;;;;;;-144.73;100.00;54773.06;4971270;28;20034;-75
2023/12/09 03:02:07;;;;;;;660.05;69.10;;;;;;;-144.73;100.00;54760.75;4972989;28;20110;-75
2023/12/09 03:04:33;;;;;;;938.50;88.10;;;;;;;-144.73;100.00;54738.16;4971758;28;20045;-76
2023/12/09 03:06:58;;;;;;;788.67;76.07;;;;;;;-144.73;100.00;54748.44;4972275;28;20030;-75
2023/12/09 03:09:23;;;;;;;919.78;84.60;;;;;;;-144.73;100.00;54760.75;4972659;28;20031;-75
2023/12/09 03:11:49;;;;;;;729.40;79.55;;;;;;;-144.73;100.00;54756.66;4971887;28;20038;-75
2023/12/09 03:14:14;;;;;;;850.63;79.22;;;;;;;-144.73;100.00;54736.13;4971874;28;20076;-75
2023/12/09 03:16:40;;;;;;;871.67;79.93;;;;;;;-144.73;100.00;54764.84;4971612;28;20077;-76
2023/12/09 03:19:05;;;;;;;864.85;80.05;;;;;;;-144.73;100.00;54719.69;4972302;28;20062;-75
2023/12/09 03:21:31;;;;;;;725.25;75.35;;;;;;;-144.73;100.00;54740.22;4971192;28;20058;-73
2023/12/09 03:23:57;;;;;;;774.08;76.03;;;;;;;-144.73;100.00;54793.59;4972481;28;20137;-74
2023/12/09 03:26:24;;;;;;;791.25;74.43;;;;;;;-144.73;100.00;54756.66;4970834;28;20126;-75
2023/12/09 03:28:51;;;;;;;774.33;76.72;;;;;;;-144.73;100.00;54723.81;4971074;28;20048;-74
2023/12/09 03:31:17;;;;;;;814.05;81.82;;;;;;;-144.73;100.00;54719.69;4971140;28;20034;-74
2023/12/09 03:33:43;;;;;;;632.22;73.07;;;;;;;-144.73;100.00;54764.84;4972045;28;20030;-74
2023/12/09 03:36:11;;;;;;;721.25;73.22;;;;;;;-144.73;100.00;54766.91;4970324;28;20042;-74
2023/12/09 03:38:37;;;;;;;707.45;75.10;;;;;;;-144.73;100.00;54744.31;4971688;28;20026;-74
2023/12/09 03:41:04;;;;;;;749.20;80.65;;;;;;;-144.73;100.00;54756.66;4971079;28;20047;-73
2023/12/09 03:43:30;;;;;;;611.17;70.65;;;;;;;-144.73;100.00;54764.84;4970828;28;20030;-73
2023/12/09 03:45:55;;;;;;;647.25;67.93;;;;;;;-144.73;100.00;54742.28;4971149;28;20047;-74
2023/12/09 03:48:21;;;;;;;717.38;73.47;;;;;;;-144.73;100.00;54711.47;4971614;28;20058;-75
2023/12/09 03:50:47;;;;;;;956.72;89.97;;;;;;;-144.73;100.00;54773.06;4971353;28;20056;-73
2023/12/09 03:53:13;;;;;;;660.75;69.60;;;;;;;-144.73;100.00;54752.53;4971548;28;20026;-76
2023/12/09 03:55:39;;;;;;;651.28;73.70;;;;;;;-144.73;100.00;54756.66;4970789;28;20073;-73
2023/12/09 03:58:05;;;;;;;704.10;73.47;;;;;;;-144.73;100.00;54758.69;4970759;28;20074;-74
2023/12/09 04:00:30;;;;;;;710.63;76.68;;;;;;;-144.73;100.00;54736.13;4970815;28;20042;-74
2023/12/09 04:02:55;;;;;;;730.72;80.07;;;;;;;-144.73;100.00;54768.97;4971342;28;20023;-74
2023/12/09 04:05:21;;;;;;;742.42;76.35;;;;;;;-144.73;100.00;54756.66;4970994;28;20441;-74
2023/12/09 04:07:46;;;;;;;697.70;71.32;;;;;;;-144.73;100.00;54736.13;4971066;28;20039;-74
2023/12/09 04:10:11;;;;;;;697.50;77.63;;;;;;;-144.73;100.00;54781.28;4970350;28;20170;-74
2023/12/09 04:12:40;;;;;;;677.15;75.05;;;;;;;-144.73;100.00;54791.53;4970045;28;20058;-74
2023/12/09 04:15:07;;;;;;;652.97;77.32;;;;;;;-144.73;100.00;54773.06;4970579;28;20031;-74
2023/12/09 04:17:33;;;;;;;715.95;77.03;;;;;;;-144.73;100.00;54801.81;4974705;28;20041;-76
2023/12/09 04:19:58;;;;;;;636.90;72.82;;;;;;;-144.73;100.00;54723.81;4971171;28;20046;-74
2023/12/09 04:22:23;;;;;;;731.78;78.90;;;;;;;-144.73;100.00;54736.13;4971616;28;20129;-74
2023/12/09 04:24:49;;;;;;;673.72;73.70;;;;;;;-144.73;100.00;54732.00;4974418;28;20045;-74
2023/12/09 04:27:14;;;;;;;672.17;75.85;;;;;;;-144.73;100.00;54719.69;4973819;28;20038;-73
2023/12/09 04:29:39;;;;;;;818.22;82.72;;;;;;;-144.73;100.00;54748.44;4969904;28;20030;-74
2023/12/09 04:32:05;;;;;;;693.67;81.05;;;;;;;-144.73;100.00;54744.31;4970855;28;20031;-73
2023/12/09 04:34:30;;;;;;;757.38;82.65;;;;;;;-144.73;100.00;54756.66;4970506;28;20121;-75
2023/12/09 04:36:56;;;;;;;623.38;77.40;;;;;;;-144.73;100.00;54756.66;4970384;28;20043;-75
2023/12/09 04:39:24;;;;;;;677.50;80.05;;;;;;;-144.73;100.00;54746.38;5002757;28;20486;-75
2023/12/09 04:41:52;;;;;;;598.38;74.85;;;;;;;-144.73;100.00;54746.38;4969258;28;20092;-75
2023/12/09 04:44:17;;;;;;;606.28;75.63;;;;;;;-144.73;100.00;54801.81;4970332;28;20031;-74
2023/12/09 04:46:43;;;;;;;635.25;75.63;;;;;;;-144.73;100.00;54756.66;4969578;28;20068;-75
2023/12/09 04:49:08;;;;;;;719.63;79.13;;;;;;;-144.73;100.00;54740.22;4969560;28;20025;-75
2023/12/09 04:51:34;;;;;;;483.42;63.05;;;;;;;-144.73;100.00;54775.13;4969301;28;20049;-76
2023/12/09 04:53:59;;;;;;;592.97;75.72;;;;;;;-144.73;100.00;54748.44;4969970;28;20030;-75
2023/12/09 04:56:24;;;;;;;545.33;69.32;;;;;;;-144.73;100.00;54781.28;4969321;28;20050;-76
2023/12/09 04:58:50;;;;;;;583.13;75.03;;;;;;;-144.73;100.00;54682.75;4975528;28;20030;-75
2023/12/09 05:01:18;;;;;;;607.47;76.38;;;;;;;-144.73;100.00;54719.69;4975156;28;20044;-75
2023/12/09 05:03:44;;;;;;;590.05;74.55;;;;;;;-144.73;100.00;54744.31;4975424;28;20034;-74
2023/12/09 05:06:09;;;;;;;659.47;83.13;;;;;;;-144.73;100.00;54764.84;4973586;28;20057;-75
2023/12/09 05:08:35;;;;;;;646.78;81.80;;;;;;;-144.73;100.00;54801.81;4969788;28;20085;-75
2023/12/09 05:11:00;;;;;;;638.20;77.45;;;;;;;-144.73;100.00;54777.16;4969180;28;20046;-75
2023/12/09 05:13:26;;;;;;;619.35;77.18;;;;;;;-144.73;100.00;54768.97;4970168;28;20234;-75
2023/12/09 05:15:51;;;;;;;543.75;74.05;;;;;;;-144.73;100.00;54773.06;4969044;28;20130;-75
2023/12/09 05:18:17;;;;;;;538.75;71.63;;;;;;;-144.73;100.00;54748.44;4969434;28;20478;-75
2023/12/09 05:20:43;;;;;;;667.90;84.65;;;;;;;-144.73;100.00;54760.75;4968836;28;20039;-74
2023/12/09 05:23:09;;;;;;;549.22;76.88;;;;;;;-144.73;100.00;54768.97;4969935;28;20470;-74
2023/12/09 05:25:34;;;;;;;569.25;78.85;;;;;;;-144.73;100.00;54801.81;4968520;28;20053;-77
2023/12/09 05:28:00;;;;;;;556.42;78.40;;;;;;;-144.73;100.00;54773.06;4968958;28;20110;-75
2023/12/09 05:30:26;;;;;;;530.35;75.07;;;;;;;-144.73;100.00;54789.50;4969186;28;20043;-74
2023/12/09 05:32:51;;;;;;;728.15;94.57;;;;;;;-144.73;100.00;54723.81;4969788;28;20056;-74
2023/12/09 05:35:17;;;;;;;613.47;79.32;;;;;;;-144.73;100.00;54785.38;4968851;28;20082;-76
2023/12/09 05:37:42;;;;;;;599.83;81.45;;;;;;;-144.73;100.00;54752.53;4971400;28;20027;-75
2023/12/09 05:40:08;;;;;;;487.15;72.55;;;;;;;-144.73;100.00;54756.66;4971346;28;20039;-75
2023/12/09 05:42:33;;;;;;;520.60;72.57;;;;;;;-144.73;100.00;54756.66;4971973;28;20023;-75
2023/12/09 05:44:59;;;;;;;651.00;85.72;;;;;;;-144.73;100.00;54740.22;4970362;28;20497;-74
2023/12/09 05:47:25;;;;;;;535.65;73.88;;;;;;;-144.73;100.00;54805.91;4969531;28;20031;-75
2023/12/09 05:49:50;;;;;;;632.45;84.68;;;;;;;-144.73;100.00;54732.00;4969396;28;20038;-75
2023/12/09 05:52:16;;;;;;;546.05;77.55;;;;;;;-144.73;100.00;54760.75;4972419;28;20030;-76
2023/12/09 05:54:41;;;;;;;606.00;79.07;;;;;;;-144.73;100.00;54773.06;4968658;28;20031;-74
2023/12/09 05:57:07;;;;;;;519.70;73.68;;;;;;;-144.73;100.00;54744.31;4969979;28;20027;-74
2023/12/09 05:59:32;;;;;;;659.40;90.40;;;;;;;-144.73;100.00;54719.69;4970417;28;20069;-75
2023/12/09 06:01:58;;;;;;;508.85;79.72;;;;;;;-144.73;100.00;54785.38;4972818;28;20054;-75
2023/12/09 06:04:23;;;;;;;707.47;93.05;;;;;;;-144.73;100.00;54740.22;4973639;28;20034;-76
2023/12/09 06:06:48;;;;;;;576.00;82.72;;;;;;;-144.73;100.00;54773.06;4978670;28;20039;-75
2023/12/09 06:09:16;;;;;;;618.72;79.80;;;;;;;-144.73;100.00;54777.16;4977909;28;20086;-76
2023/12/09 06:11:42;;;;;;;566.25;80.28;;;;;;;-144.73;100.00;54752.53;4973507;28;20030;-76
2023/12/09 06:14:07;;;;;;;468.98;79.53;;;;;;;-144.73;100.00;54736.13;4975028;28;20147;-75
2023/12/09 06:16:33;;;;;;;489.25;78.97;;;;;;;-144.73;100.00;54746.38;4974152;28;20035;-75
2023/12/09 06:18:59;;;;;;;491.77;76.80;;;;;;;-144.73;100.00;54773.06;4973540;28;20031;-75
2023/12/09 06:21:25;;;;;;;477.48;79.93;;;;;;;-144.73;100.00;54785.38;4973007;28;20074;-75
2023/12/09 06:23:51;;;;;;;482.13;79.10;;;;;;;-144.73;100.00;54764.84;4973086;28;20031;-74
2023/12/09 06:26:18;;;;;;;515.28;81.00;;;;;;;-144.73;100.00;54781.28;4973208;28;20027;-75
2023/12/09 06:28:43;;;;;;;434.05;73.05;;;;;;;-144.73;100.00;54740.22;4980809;28;20022;-75
2023/12/09 06:31:12;;;;;;;539.63;83.35;;;;;;;-144.73;100.00;54764.84;4974972;28;20493;-75
2023/12/09 06:33:37;;;;;;;450.77;78.75;;;;;;;-144.73;100.00;54736.13;4978420;28;20022;-75
2023/12/09 06:36:04;;;;;;;461.08;76.32;;;;;;;-144.73;100.00;54785.38;4973455;28;20050;-74
2023/12/09 06:38:29;;;;;;;483.73;76.80;;;;;;;-144.73;100.00;54777.16;4979091;28;20026;-75
2023/12/09 06:40:55;;;;;;;527.97;83.10;;;;;;;-144.73;100.00;54768.97;5005929;28;20058;-75
2023/12/09 06:43:20;;;;;;;528.40;81.35;;;;;;;-144.73;100.00;54752.53;4977100;28;20030;-75
2023/12/09 06:45:46;;;;;;;466.92;77.03;;;;;;;-144.73;100.00;54781.28;4974807;28;20038;-75
2023/12/09 06:48:12;;;;;;;515.08;80.53;;;;;;;-144.73;100.00;54756.66;4973528;28;20027;-75
2023/12/09 06:50:38;;;;;;;444.35;77.70;;;;;;;-144.73;100.00;54738.16;4974241;28;20042;-75
2023/12/09 06:53:03;;;;;;;434.35;75.00;;;;;;;-144.73;100.00;54742.28;4979445;28;20090;-75
2023/12/09 06:55:29;;;;;;;444.90;79.00;;;;;;;-144.73;100.00;54748.44;4978858;28;20049;-75
2023/12/09 06:57:54;;;;;;;442.25;75.65;;;;;;;-144.73;100.00;54738.16;4972274;28;20114;-76
2023/12/09 07:00:19;;;;;;;434.35;73.93;;;;;;;-144.73;100.00;54740.22;4999110;28;20058;-75
2023/12/09 07:02:45;;;;;;;406.52;69.80;;;;;;;-144.73;100.00;54756.66;4969290;28;20043;-76
2023/12/09 07:05:13;;;;;;;514.03;79.18;;;;;;;-144.73;100.00;54756.66;4965323;28;20042;-75
2023/12/09 07:07:38;;;;;;;438.48;77.30;;;;;;;-144.73;100.00;54768.97;4966284;28;20023;-71
2023/12/09 07:10:05;;;;;;;632.15;89.13;;;;;;;-144.73;100.00;54793.59;4974496;28;20043;-71
2023/12/09 07:12:31;;;;;;;496.38;80.30;;;;;;;-144.73;100.00;54744.31;4976368;28;20114;-71
2023/12/09 07:14:58;;;;;;;425.30;76.47;;;;;;;-144.73;100.00;54777.16;4968692;28;20127;-71
2023/12/09 07:17:24;;;;;;;454.63;77.05;;;;;;;-144.73;100.00;54777.16;4974560;28;20022;-72
2023/12/09 07:19:52;;;;;;;566.15;84.40;;;;;;;-144.73;100.00;54744.31;4974779;28;20617;-71
2023/12/09 07:22:21;;;;;;;440.25;75.13;;;;;;;-144.73;100.00;54756.66;4975001;28;20032;-72
2023/12/09 07:24:47;;;;;;;483.92;79.93;;;;;;;-144.73;100.00;54768.97;4977366;28;20038;-71
2023/12/09 07:27:12;;;;;;;471.20;76.05;;;;;;;-144.73;100.00;54768.97;4968649;28;20026;-73
2023/12/09 07:29:38;;;;;;;438.33;74.65;;;;;;;-144.73;100.00;54748.44;4968976;28;20429;-72
2023/12/09 07:32:04;;;;;;;356.23;66.60;;;;;;;-144.73;100.00;54777.16;4964614;28;20205;-73
2023/12/09 07:34:29;;;;;;;328.00;65.30;;;;;;;-144.73;100.00;54760.75;4970455;28;20023;-73
2023/12/09 07:36:56;;;;;;;293.33;65.32;;;;;;;-144.73;100.00;54744.31;4968070;28;20037;-73
2023/12/09 07:39:21;;;;;;;335.20;67.25;;;;;;;-144.73;100.00;54707.38;4967889;28;20031;-73
2023/12/09 07:41:50;;;;;;;355.45;67.93;;;;;;;-144.73;100.00;54727.91;4967431;28;20041;-73
2023/12/09 07:44:20;;;;;;;369.85;67.40;;;;;;;-144.73;100.00;54750.50;4960188;28;20034;-73
2023/12/09 07:46:46;;;;;;;290.67;63.58;;;;;;;-144.73;100.00;54736.13;4967225;28;20105;-73
2023/12/09 07:49:12;;;;;;;289.80;60.83;;;;;;;-144.73;100.00;54744.31;4966607;28;20482;-73
2023/12/09 07:51:37;;;;;;;323.88;65.97;;;;;;;-144.73;100.00;54752.53;4967906;28;20070;-73
2023/12/09 07:54:03;;;;;;;288.05;61.28;;;;;;;-144.73;100.00;54732.00;4971135;28;20022;-73
2023/12/09 07:56:28;;;;;;;309.52;67.05;;;;;;;-144.73;100.00;54756.66;4974495;28;20117;-71
2023/12/09 07:58:54;;;;;;;263.42;61.58;;;;;;;-144.73;100.00;54736.13;4971641;28;20061;-72
2023/12/09 08:01:19;;;;;;;281.92;63.50;;;;;;;-144.73;100.00;54736.13;4966930;28;20093;-72
2023/12/09 08:03:45;;;;;;;323.33;64.03;;;;;;;-144.73;100.00;54762.81;4967563;28;20109;-72
2023/12/09 08:06:11;;;;;;;313.95;61.60;;;;;;;-144.73;100.00;54766.91;4966944;28;20038;-72
2023/12/09 08:08:37;;;;;;;282.70;60.83;;;;;;;-144.73;100.00;54785.38;4963132;28;20035;-72
2023/12/09 08:11:03;;;;;;;321.73;65.22;;;;;;;-144.73;100.00;54742.28;4959957;28;20071;-72
2023/12/09 08:13:28;;;;;;;303.95;64.40;;;;;;;-144.73;100.00;54760.75;4960304;28;20030;-73
2023/12/09 08:15:54;;;;;;;278.15;60.00;;;;;;;-144.73;100.00;54756.66;4960325;28;20135;-72
2023/12/09 08:18:19;;;;;;;305.13;65.25;;;;;;;-144.73;100.00;54777.16;4960630;28;20023;-73
2023/12/09 08:20:45;;;;;;;226.50;51.58;;;;;;;-144.73;100.00;54768.97;4956556;28;20062;-72
2023/12/09 08:23:11;;;;;;;275.48;59.95;;;;;;;-144.73;100.00;54766.91;4958176;28;20019;-73
2023/12/09 08:25:37;;;;;;;247.80;58.53;;;;;;;-144.73;100.00;54740.22;4967170;28;20122;-71
2023/12/09 08:28:02;;;;;;;267.00;61.53;;;;;;;-144.73;100.00;54732.00;4974092;28;20037;-73
2023/12/09 08:30:28;;;;;;;247.07;56.08;;;;;;;-144.73;100.00;54758.69;4974016;28;20039;-73
2023/12/09 08:32:53;;;;;;;258.25;57.63;;;;;;;-144.73;100.00;54781.28;4977203;28;20022;-72
2023/12/09 08:35:19;;;;;;;211.63;49.03;;;;;;;-144.73;100.00;54732.00;4968849;28;20121;-72
2023/12/09 08:37:44;;;;;;;212.27;51.30;;;;;;;-144.73;100.00;54744.31;4967659;28;20033;-73
2023/12/09 08:40:13;;;;;;;209.02;51.53;;;;;;;-144.73;100.00;54740.22;4967203;28;20039;-73
2023/12/09 08:42:39;;;;;;;203.25;52.35;;;;;;;-144.73;100.00;54719.69;4967649;28;20023;-73
2023/12/09 08:45:06;;;;;;;211.48;52.75;;;;;;;-144.73;100.00;54756.66;4966001;28;20043;-72
2023/12/09 08:47:32;;;;;;;187.38;49.40;;;;;;;-144.73;100.00;54744.31;4959475;28;20062;-72
2023/12/09 08:49:57;;;;;;;202.98;50.97;;;;;;;-144.73;100.00;54744.31;4966991;28;20054;-72
2023/12/09 08:52:22;;;;;;;162.82;43.35;;;;;;;-144.73;100.00;54719.69;4967283;28;20034;-72
2023/12/09 08:54:48;;;;;;;185.93;46.97;;;;;;;-144.73;100.00;54727.91;4966923;28;20038;-72
2023/12/09 08:57:13;;;;;;;187.75;48.50;;;;;;;-144.73;100.00;54756.66;4966317;28;20078;-72
2023/12/09 08:59:39;;;;;;;180.65;46.92;;;;;;;-144.73;100.00;54744.31;4960801;28;20042;-73
2023/12/09 09:02:04;;;;;;;168.77;47.63;;;;;;;-144.73;100.00;54777.16;4962515;28;20113;-72
2023/12/09 09:04:29;;;;;;;210.20;51.20;;;;;;;-144.73;100.00;54768.97;4959497;28;20050;-72
2023/12/09 09:06:55;;;;;;;165.98;46.63;;;;;;;-144.73;100.00;54742.28;4970362;28;20092;-72
2023/12/09 09:09:20;;;;;;;157.05;45.20;;;;;;;-144.73;100.00;54670.44;4970873;28;20026;-71
2023/12/09 09:11:46;;;;;;;155.63;44.38;;;;;;;-144.73;100.00;54760.75;4958870;28;20077;-72
2023/12/09 09:14:11;;;;;;;144.85;41.92;;;;;;;-144.73;100.00;54748.44;4969674;28;20026;-71
2023/12/09 09:16:37;;;;;;;165.95;42.08;;;;;;;-144.73;100.00;54740.22;4965027;28;20405;-72
2023/12/09 09:19:02;;;;;;;145.82;42.78;;;;;;;-144.73;100.00;54740.22;4965754;28;20117;-73
2023/12/09 09:21:28;;;;;;;138.68;41.80;;;;;;;-144.73;100.00;54740.22;4962455;28;20050;-71
2023/12/09 09:23:53;;;;;;;129.40;39.55;;;;;;;-144.73;100.00;54744.31;4966857;28;20057;-72
2023/12/09 09:26:18;;;;;;;145.35;38.35;;;;;;;-144.73;100.00;54801.81;4966665;28;20053;-71
2023/12/09 09:28:44;;;;;;;138.73;38.42;;;;;;;-144.73;100.00;54762.81;4961503;28;20093;-71
2023/12/09 09:31:12;;;;;;;128.43;39.38;;;;;;;-144.73;100.00;54748.44;4962106;28;20038;-73
2023/12/09 09:33:38;;;;;;;140.45;40.50;;;;;;;-144.73;100.00;54760.75;4963965;28;20031;-71
2023/12/09 09:36:03;;;;;;;135.93;41.10;;;;;;;-144.73;100.00;54746.38;4959573;28;20061;-70
2023/12/09 09:38:29;;;;;;;140.65;39.58;;;;;;;-144.73;100.00;54744.31;4967273;28;20042;-71
2023/12/09 09:40:55;;;;;;;112.88;37.15;;;;;;;-144.73;100.00;54756.66;4970341;28;20136;-69
2023/12/09 09:43:24;;;;;;;119.63;40.35;;;;;;;-144.73;100.00;54732.00;4970718;28;20023;-69
2023/12/09 09:45:54;;;;;;;121.70;38.70;;;;;;;-144.73;100.00;54736.13;4971870;28;20078;-69
2023/12/09 09:48:24;;;;;;;133.82;39.38;;;;;;;-144.73;100.00;54781.28;4967332;28;20034;-68
2023/12/09 09:50:52;;;;;;;117.32;37.72;;;;;;;-144.73;100.00;54715.59;4966357;28;20046;-69
2023/12/09 09:53:34;;;;;;;121.22;36.40;;;;;;;-144.73;100.00;54725.84;4975424;28;20121;-69
2023/12/09 09:56:01;;;;;;;122.68;39.03;;;;;;;-144.73;100.00;54760.75;4966999;28;20050;-69
2023/12/09 09:58:26;;;;;;;120.93;37.33;;;;;;;-144.73;100.00;54748.44;4963097;28;20047;-68
2023/12/09 10:00:55;;;;;;;122.30;37.45;;;;;;;-144.73;100.00;54752.53;4965288;28;20062;-68
2023/12/09 10:03:21;;;;;;;109.45;37.10;;;;;;;-144.73;100.00;54760.75;4966007;28;20038;-69
2023/12/09 10:05:47;;;;;;;114.55;37.60;;;;;;;-144.73;100.00;54867.50;4966339;28;20502;-69
2023/12/09 10:08:12;;;;;;;110.40;33.60;;;;;;;-144.73;100.00;54740.22;4969975;28;20050;-69
2023/12/09 10:10:38;;;;;;;96.93;32.83;;;;;;;-144.73;100.00;54768.97;4974442;28;20081;-70
2023/12/09 10:13:04;;;;;;;97.45;32.20;;;;;;;-144.73;100.00;54773.06;4971066;28;20027;-68
2023/12/09 10:15:29;;;;;;;111.50;34.08;;;;;;;-144.73;100.00;54754.59;4970326;28;20043;-69
2023/12/09 10:18:00;;;;;;;103.95;32.78;;;;;;;-144.73;100.00;54729.97;4966688;28;20053;-68
2023/12/09 10:20:29;;;;;;;98.07;30.80;;;;;;;-144.73;100.00;54768.97;4970993;28;20055;-67
2023/12/09 10:22:54;;;;;;;104.28;32.83;;;;;;;-144.73;100.00;54748.44;4970154;28;20117;-67
2023/12/09 10:25:23;;;;;;;80.15;29.15;;;;;;;-144.73;100.00;54760.75;4966046;28;20117;-68
2023/12/09 10:27:48;;;;;;;92.07;32.97;;;;;;;-144.73;100.00;54734.06;4966306;28;20039;-68
2023/12/09 10:30:18;;;;;;;89.43;30.48;;;;;;;-144.73;100.00;54723.81;4965431;28;20054;-68
2023/12/09 10:32:44;;;;;;;89.60;30.50;;;;;;;-144.73;100.00;54719.69;4965670;28;20026;-72
2023/12/09 10:35:10;;;;;;;94.57;29.83;;;;;;;-144.73;100.00;54752.53;4959597;28;20033;-69
2023/12/09 10:37:36;;;;;;;82.28;29.20;;;;;;;-144.73;100.00;54750.50;4961730;28;20034;-67
2023/12/09 10:40:06;;;;;;;73.43;27.70;;;;;;;-144.73;100.00;54752.53;4964434;28;20031;-70
2023/12/09 10:42:31;;;;;;;70.25;26.63;;;;;;;-144.73;100.00;54752.53;4970609;28;20091;-68